CDT,Max TemperatureF,Mean TemperatureF,Min TemperatureF,Max Dew PointF,MeanDew PointF,Min DewpointF,Max Humidity, Mean Humidity, Min Humidity, Max Sea Level PressureIn, Mean Sea Level PressureIn, Min Sea Level PressureIn, Max VisibilityMiles, Mean VisibilityMiles, Min VisibilityMiles, Max Wind SpeedMPH, Mean Wind SpeedMPH, Max Gust SpeedMPH,PrecipitationIn, CloudCover, Events, WindDirDegrees
2013-9-1,108,94,82,70,61,53,66,36,17,29.97,29.84,29.76,10,10,2,25,7,34,0.00,2,Thunderstorm,177
2013-9-2,93,86,78,72,69,64,79,65,38,30.05,29.94,29.85,10,9,2,23,9,36,0.93,4,Thunderstorm,235
2013-9-3,99,89,79,71,62,54,72,45,22,30.01,29.95,29.89,10,10,10,9,5,,0.00,1,,340
2013-9-4,102,88,75,67,62,57,71,45,24,30.04,29.99,29.94,10,10,10,9,5,,0.00,0,,360
2013-9-5,100,90,81,67,63,57,60,42,25,30.11,30.04,29.99,10,10,10,10,5,,0.00,0,,104
2013-9-6,100,90,80,67,62,56,60,40,22,30.09,30.02,29.94,10,10,10,9,3,,0.00,2,,133
2013-9-7,100,90,81,67,62,54,60,41,23,30.04,29.97,29.91,10,10,10,17,7,25,0.00,2,,164
2013-9-8,99,86,75,67,62,57,73,48,25,30.03,29.94,29.86,10,10,10,15,6,23,0.00,1,,154
2013-9-9,98,86,75,67,62,58,71,46,28,30.01,29.95,29.90,10,10,10,16,9,26,0.00,2,,171
2013-9-10,93,86,79,68,64,58,67,51,31,30.10,30.04,29.99,10,10,10,14,8,20,0.00,4,,154
2013-9-11,98,87,77,68,63,59,66,47,28,30.13,30.06,29.99,10,10,10,15,6,25,0.00,2,,131
2013-9-12,99,86,75,71,63,59,64,46,28,30.09,30.01,29.93,10,10,10,12,4,,0.00,2,,148
2013-9-13,99,88,78,69,64,59,71,47,27,29.99,29.92,29.83,10,10,8,9,3,20,0.00,4,,57
2013-9-14,96,88,80,65,61,58,54,42,30,29.98,29.92,29.86,10,10,10,13,8,16,0.00,1,,94
2013-9-15,98,88,80,66,62,57,54,42,31,30.04,29.98,29.94,10,10,10,13,8,,0.00,2,,132
2013-9-16,99,89,80,67,61,51,60,41,20,30.09,30.03,29.96,10,10,10,10,4,21,0.00,4,,138
2013-9-17,95,87,81,68,61,58,55,42,32,30.08,30.01,29.94,10,10,10,13,4,,0.00,5,,173
2013-9-18,99,90,80,67,61,55,60,42,25,30.01,29.94,29.87,10,10,10,17,7,20,0.00,4,,171
2013-9-19,91,82,73,70,66,61,82,59,41,30.04,29.94,29.87,10,9,2,18,9,32,0.35,6,Rain-Thunderstorm,160
2013-9-20,75,74,70,70,68,61,84,80,73,30.00,29.92,29.87,10,7,1,17,9,23,1.79,7,Rain,36
2013-9-21,86,74,64,59,51,41,70,49,21,30.04,29.94,29.88,10,10,10,14,10,18,0.00,0,,357
2013-9-22,86,72,60,55,50,44,70,48,24,29.96,29.88,29.81,10,10,10,7,4,16,0.00,0,,118
2013-9-23,89,76,63,53,50,46,63,42,24,29.87,29.82,29.75,10,10,10,14,3,18,0.00,0,,149
2013-9-24,95,81,69,62,55,45,71,46,18,29.95,29.89,29.84,10,10,10,10,3,,0.00,1,,316
2013-9-25,96,80,64,56,51,45,73,41,19,29.93,29.85,29.77,10,10,6,9,3,,0.00,0,,178
2013-9-26,96,84,73,57,51,47,50,33,20,29.88,29.83,29.79,10,10,10,17,7,24,0.00,0,,152
2013-9-27,91,82,75,68,65,53,67,53,43,29.93,29.88,29.83,10,10,10,16,11,25,0.00,5,,156
2013-9-28,87,78,70,72,68,57,79,69,62,30.06,29.95,29.86,10,9,3,22,13,28,0.06,7,Rain-Thunderstorm,195
2013-9-29,82,73,64,57,50,42,68,48,24,30.10,30.01,29.93,10,10,10,14,8,20,0.00,3,Rain,336
2013-9-30,89,74,60,56,50,45,75,47,22,29.93,29.87,29.81,10,10,10,12,3,,0.00,0,,153